Time;durP1;ratioP1;P1;durP2;ratioP2;P2;SDS_P1;SDS_P2;PMS_P1;PMS_P2;Temp;Humidity;BMP_temperature;BMP_pressure;BME280_temperature;BME280_humidity;BME280_pressure;Samples;Min_cycle;Max_cycle;Signal;HPM_P1;HPM_P2
2023/08/28 00:02:19;;;;;;;;;;;15.10;80.90;;;;;;5093605;28;19915;-38
2023/08/28 00:04:45;;;;;;;;;;;15.10;81.00;;;;;;5093533;28;20268;-39
2023/08/28 00:07:10;;;;;;;;;;;15.10;81.00;;;;;;5093496;28;19969;-38
2023/08/28 00:09:36;;;;;;;;;;;15.10;81.10;;;;;;5093406;28;20385;-39
2023/08/28 00:12:02;;;;;;;;;;;15.10;81.10;;;;;;5093563;28;19928;-37
2023/08/28 00:14:28;;;;;;;;;;;15.10;81.10;;;;;;5093485;28;20260;-37
2023/08/28 00:16:53;;;;;;;;;;;15.10;81.10;;;;;;5093399;28;19908;-37
2023/08/28 00:19:19;;;;;;;;;;;15.10;81.10;;;;;;5093254;28;20024;-35
2023/08/28 00:21:44;;;;;;;;;;;15.10;81.20;;;;;;5093224;28;19908;-37
2023/08/28 00:24:10;;;;;;;;;;;15.00;81.20;;;;;;5093445;28;19909;-38
2023/08/28 00:26:35;;;;;;;;;;;15.00;81.20;;;;;;5093228;28;19941;-37
2023/08/28 00:29:01;;;;;;;;;;;15.00;81.30;;;;;;5093281;28;19916;-38
2023/08/28 00:31:26;;;;;;;;;;;15.00;81.30;;;;;;5093116;28;19919;-37
2023/08/28 00:33:52;;;;;;;;;;;15.00;81.40;;;;;;5093190;28;19914;-37
2023/08/28 00:36:17;;;;;;;;;;;15.00;81.50;;;;;;5093087;28;19908;-37
2023/08/28 00:38:43;;;;;;;;;;;15.00;81.50;;;;;;5092790;28;20374;-38
2023/08/28 00:41:08;;;;;;;;;;;14.90;81.40;;;;;;5093308;28;19931;-40
2023/08/28 00:43:34;;;;;;;;;;;15.00;81.50;;;;;;5092912;28;19983;-37
2023/08/28 00:46:00;;;;;;;;;;;14.90;81.50;;;;;;5093176;28;20036;-39
2023/08/28 00:48:27;;;;;;;;;;;14.90;81.50;;;;;;5092904;28;19908;-37
2023/08/28 00:50:53;;;;;;;;;;;14.90;81.60;;;;;;5092506;28;19908;-37
2023/08/28 00:53:19;;;;;;;;;;;14.90;81.60;;;;;;5092759;28;19936;-37
2023/08/28 00:55:44;;;;;;;;;;;14.90;81.70;;;;;;5092713;28;20362;-37
2023/08/28 00:58:10;;;;;;;;;;;14.90;81.70;;;;;;5092806;28;20000;-35
2023/08/28 01:00:35;;;;;;;;;;;14.90;81.70;;;;;;5092371;28;19919;-38
2023/08/28 01:03:01;;;;;;;;;;;14.80;81.70;;;;;;5092446;28;19912;-38
2023/08/28 01:05:35;;;;;;;;;;;14.80;81.70;;;;;;5092506;28;19916;-38
2023/08/28 01:08:19;;;;;;;;;;;14.80;81.80;;;;;;5092629;28;19908;-38
2023/08/28 01:10:49;;;;;;;;;;;14.80;81.90;;;;;;5092297;28;19908;-38
2023/08/28 01:13:36;;;;;;;;;;;14.80;81.90;;;;;;5092447;28;19916;-36
2023/08/28 01:16:02;;;;;;;;;;;14.80;81.90;;;;;;5092196;28;19912;-37
2023/08/28 01:18:28;;;;;;;;;;;14.80;81.90;;;;;;5092266;28;19908;-38
2023/08/28 01:20:53;;;;;;;;;;;14.80;81.90;;;;;;5092036;28;19931;-36
2023/08/28 01:23:38;;;;;;;;;;;14.80;81.90;;;;;;5092296;28;19915;-36
2023/08/28 01:26:03;;;;;;;;;;;14.80;82.00;;;;;;5092171;28;19908;-35
2023/08/28 01:28:29;;;;;;;;;;;14.80;82.00;;;;;;5091756;28;20287;-37
2023/08/28 01:30:55;;;;;;;;;;;14.80;82.10;;;;;;5092095;28;20359;-38
2023/08/28 01:33:20;;;;;;;;;;;14.70;82.00;;;;;;5092192;28;20010;-37
2023/08/28 01:35:50;;;;;;;;;;;14.70;82.10;;;;;;5092040;28;19908;-39
2023/08/28 01:38:27;;;;;;;;;;;14.70;82.10;;;;;;5090780;28;19908;-38
2023/08/28 01:41:00;;;;;;;;;;;14.70;82.20;;;;;;5092077;28;19947;-37
2023/08/28 01:43:29;;;;;;;;;;;14.70;82.20;;;;;;5091946;28;19974;-38
2023/08/28 01:45:54;;;;;;;;;;;14.70;82.20;;;;;;5091984;28;19908;-37
2023/08/28 01:48:20;;;;;;;;;;;14.70;82.30;;;;;;5091875;28;19908;-38
2023/08/28 01:50:45;;;;;;;;;;;14.60;82.40;;;;;;5091856;28;19908;-37
2023/08/28 01:53:12;;;;;;;;;;;14.60;82.40;;;;;;5091925;28;20368;-38
2023/08/28 01:56:06;;;;;;;;;;;14.60;82.40;;;;;;5091886;28;19908;-41
2023/08/28 01:58:32;;;;;;;;;;;14.50;82.40;;;;;;5091613;28;19921;-37
2023/08/28 02:00:58;;;;;;;;;;;14.60;82.50;;;;;;5091421;28;20333;-37
2023/08/28 02:03:24;;;;;;;;;;;14.60;82.60;;;;;;5091481;28;19912;-37
2023/08/28 02:05:49;;;;;;;;;;;14.50;82.60;;;;;;5091619;28;19920;-37
2023/08/28 02:08:15;;;;;;;;;;;14.50;82.60;;;;;;5091791;28;20386;-36
2023/08/28 02:10:40;;;;;;;;;;;14.50;82.60;;;;;;5091560;28;20044;-35
2023/08/28 02:13:06;;;;;;;;;;;14.50;82.60;;;;;;5091614;28;20322;-38
2023/08/28 02:15:31;;;;;;;;;;;14.50;82.60;;;;;;5091824;28;20006;-38
2023/08/28 02:17:57;;;;;;;;;;;14.50;82.70;;;;;;5092037;28;19908;-40
2023/08/28 02:20:22;;;;;;;;;;;14.50;82.70;;;;;;5091551;28;19998;-39
2023/08/28 02:22:48;;;;;;;;;;;14.50;82.70;;;;;;5091947;28;20287;-37
2023/08/28 02:25:13;;;;;;;;;;;14.50;82.70;;;;;;5091673;28;19908;-37
2023/08/28 02:27:38;;;;;;;;;;;14.40;82.70;;;;;;5091533;28;20333;-38
2023/08/28 02:30:04;;;;;;;;;;;14.40;82.80;;;;;;5090279;28;19908;-37
2023/08/28 02:32:30;;;;;;;;;;;14.40;82.80;;;;;;5091398;28;20367;-38
2023/08/28 02:34:55;;;;;;;;;;;14.40;82.90;;;;;;5091645;28;19908;-37
2023/08/28 02:37:21;;;;;;;;;;;14.30;82.90;;;;;;5091557;28;19912;-38
2023/08/28 02:39:46;;;;;;;;;;;14.30;83.00;;;;;;5092049;28;20303;-37
2023/08/28 02:42:12;;;;;;;;;;;14.30;83.00;;;;;;5095318;28;19935;-39
2023/08/28 02:44:37;;;;;;;;;;;14.20;83.00;;;;;;5094949;28;19915;-38
2023/08/28 02:47:04;;;;;;;;;;;14.20;83.00;;;;;;5095336;28;20395;-38
2023/08/28 02:49:29;;;;;;;;;;;14.20;83.00;;;;;;5094821;28;19908;-36
2023/08/28 02:51:55;;;;;;;;;;;14.20;83.10;;;;;;5094988;28;20311;-37
2023/08/28 02:54:20;;;;;;;;;;;14.20;83.10;;;;;;5095197;28;19962;-38
2023/08/28 02:56:46;;;;;;;;;;;14.10;83.10;;;;;;5093741;28;19908;-38
2023/08/28 02:59:11;;;;;;;;;;;14.10;83.10;;;;;;5094828;28;20363;-38
2023/08/28 03:01:37;;;;;;;;;;;14.10;83.20;;;;;;5094871;28;20301;-39
2023/08/28 03:04:06;;;;;;;;;;;14.10;83.20;;;;;;5094855;28;19908;-38
2023/08/28 03:06:35;;;;;;;;;;;14.00;83.30;;;;;;5094675;28;20434;-38
2023/08/28 03:09:00;;;;;;;;;;;13.90;83.30;;;;;;5094542;28;19908;-38
2023/08/28 03:11:26;;;;;;;;;;;13.90;83.40;;;;;;5094602;28;19916;-37
2023/08/28 03:13:51;;;;;;;;;;;13.90;83.40;;;;;;5094701;28;20417;-47
2023/08/28 03:16:17;;;;;;;;;;;13.90;83.40;;;;;;5094625;28;19908;-38
2023/08/28 03:18:42;;;;;;;;;;;13.90;83.50;;;;;;5094427;28;20536;-38
2023/08/28 03:21:07;;;;;;;;;;;13.90;83.40;;;;;;5094436;28;19931;-37
2023/08/28 03:23:33;;;;;;;;;;;13.90;83.40;;;;;;5094510;28;19987;-38
2023/08/28 03:25:59;;;;;;;;;;;13.90;83.40;;;;;;5094345;28;19957;-38
2023/08/28 03:28:24;;;;;;;;;;;13.90;83.40;;;;;;5094345;28;19908;-39
2023/08/28 03:30:50;;;;;;;;;;;13.90;83.40;;;;;;5094001;28;20342;-37
2023/08/28 03:33:15;;;;;;;;;;;13.90;83.40;;;;;;5092845;28;19954;-38
2023/08/28 03:35:41;;;;;;;;;;;13.90;83.40;;;;;;5094244;28;20030;-36
2023/08/28 03:38:06;;;;;;;;;;;13.90;83.40;;;;;;5094135;28;20009;-35
2023/08/28 03:40:34;;;;;;;;;;;13.90;83.40;;;;;;5094109;28;19916;-38
2023/08/28 03:43:00;;;;;;;;;;;13.90;83.40;;;;;;5094038;28;19909;-32
2023/08/28 03:45:25;;;;;;;;;;;13.90;83.40;;;;;;5093938;28;20264;-38
2023/08/28 03:47:51;;;;;;;;;;;13.90;83.40;;;;;;5093904;28;19912;-37
2023/08/28 03:50:16;;;;;;;;;;;13.90;83.40;;;;;;5093259;28;19916;-37
2023/08/28 03:52:42;;;;;;;;;;;14.00;83.60;;;;;;5093659;28;19995;-37
2023/08/28 03:55:08;;;;;;;;;;;14.00;83.40;;;;;;5093712;28;19958;-37
2023/08/28 03:57:34;;;;;;;;;;;14.00;83.40;;;;;;5093628;28;19908;-37
2023/08/28 04:00:00;;;;;;;;;;;14.10;83.40;;;;;;5093483;28;20441;-37
2023/08/28 04:02:26;;;;;;;;;;;14.10;83.40;;;;;;5093623;28;19951;-38
2023/08/28 04:04:51;;;;;;;;;;;14.10;83.40;;;;;;5093534;28;19913;-36
2023/08/28 04:07:23;;;;;;;;;;;14.10;83.40;;;;;;5093499;28;20348;-37
2023/08/28 04:09:51;;;;;;;;;;;14.10;83.30;;;;;;5093022;28;20448;-35
2023/08/28 04:12:16;;;;;;;;;;;14.10;83.40;;;;;;5093314;28;19912;-38
2023/08/28 04:14:42;;;;;;;;;;;14.10;83.40;;;;;;5093449;28;19926;-37
2023/08/28 04:17:07;;;;;;;;;;;14.10;83.40;;;;;;5093413;28;19909;-35
2023/08/28 04:19:33;;;;;;;;;;;14.10;83.40;;;;;;5093112;28;20360;-37
2023/08/28 04:21:58;;;;;;;;;;;14.10;83.40;;;;;;5093421;28;20035;-37
2023/08/28 04:24:24;;;;;;;;;;;14.10;83.50;;;;;;5091789;28;19908;-37
2023/08/28 04:26:49;;;;;;;;;;;14.10;83.50;;;;;;5093126;28;19908;-36
2023/08/28 04:29:15;;;;;;;;;;;14.10;83.50;;;;;;5092879;28;19908;-37
2023/08/28 04:31:40;;;;;;;;;;;14.10;83.40;;;;;;5092926;28;19912;-36
2023/08/28 04:34:06;;;;;;;;;;;14.20;83.70;;;;;;5093003;28;19908;-37
2023/08/28 04:36:31;;;;;;;;;;;14.30;83.40;;;;;;5091740;28;19908;-37
2023/08/28 04:38:56;;;;;;;;;;;14.30;83.30;;;;;;5092652;28;19953;-35
2023/08/28 04:41:22;;;;;;;;;;;14.30;83.20;;;;;;5092783;28;20284;-36
2023/08/28 04:43:47;;;;;;;;;;;14.40;83.20;;;;;;5092692;28;19908;-37
2023/08/28 04:46:13;;;;;;;;;;;14.40;83.20;;;;;;5092736;28;19915;-36
2023/08/28 04:48:38;;;;;;;;;;;14.40;83.10;;;;;;5092584;28;20249;-38
2023/08/28 04:51:04;;;;;;;;;;;14.50;83.10;;;;;;5092348;28;19907;-34
2023/08/28 04:53:30;;;;;;;;;;;14.40;83.10;;;;;;5092633;28;19908;-37
2023/08/28 04:55:55;;;;;;;;;;;14.50;83.20;;;;;;5092422;28;20000;-34
2023/08/28 04:58:21;;;;;;;;;;;14.50;83.20;;;;;;5092635;28;19913;-38
2023/08/28 05:00:46;;;;;;;;;;;14.50;83.20;;;;;;5092401;28;19912;-38
2023/08/28 05:03:12;;;;;;;;;;;14.50;83.20;;;;;;5091984;28;19908;-38
2023/08/28 05:05:37;;;;;;;;;;;14.50;83.30;;;;;;5092400;28;19920;-36
2023/08/28 05:08:05;;;;;;;;;;;14.50;83.30;;;;;;5091012;28;19961;-36
2023/08/28 05:10:31;;;;;;;;;;;14.50;83.30;;;;;;5092361;28;19912;-39
2023/08/28 05:12:56;;;;;;;;;;;14.40;83.40;;;;;;5092284;28;20368;-37
2023/08/28 05:15:22;;;;;;;;;;;14.40;83.40;;;;;;5092363;28;20124;-38
2023/08/28 05:17:47;;;;;;;;;;;14.40;83.50;;;;;;5092161;28;20354;-38
2023/08/28 05:20:13;;;;;;;;;;;14.40;83.60;;;;;;5091997;28;19912;-37
2023/08/28 05:22:39;;;;;;;;;;;14.40;83.60;;;;;;5092187;28;19912;-39
2023/08/28 05:25:04;;;;;;;;;;;14.40;83.60;;;;;;5092281;28;20264;-38
2023/08/28 05:27:30;;;;;;;;;;;14.40;83.70;;;;;;5090851;28;19916;-39
2023/08/28 05:29:55;;;;;;;;;;;14.50;83.80;;;;;;5091938;28;20433;-37
2023/08/28 05:32:21;;;;;;;;;;;14.50;83.70;;;;;;5092227;28;19919;-39
2023/08/28 05:34:46;;;;;;;;;;;14.50;83.70;;;;;;5092131;28;19912;-38
2023/08/28 05:37:12;;;;;;;;;;;14.60;83.70;;;;;;5092010;28;19962;-38
2023/08/28 05:39:38;;;;;;;;;;;14.60;83.70;;;;;;5091879;28;19912;-38
2023/08/28 05:42:03;;;;;;;;;;;14.70;84.30;;;;;;5092096;28;19954;-37
2023/08/28 05:44:29;;;;;;;;;;;14.70;83.70;;;;;;5090491;28;20287;-37
2023/08/28 05:46:55;;;;;;;;;;;14.80;83.70;;;;;;5090705;28;20004;-37
2023/08/28 05:49:20;;;;;;;;;;;14.80;83.70;;;;;;5091781;28;19923;-37
2023/08/28 05:51:46;;;;;;;;;;;14.80;83.70;;;;;;5091663;28;20336;-36
2023/08/28 05:54:11;;;;;;;;;;;14.90;83.70;;;;;;5092327;28;19923;-37
2023/08/28 05:56:37;;;;;;;;;;;14.90;83.60;;;;;;5091912;28;19913;-35
2023/08/28 05:59:02;;;;;;;;;;;14.90;83.60;;;;;;5091681;28;19912;-36
2023/08/28 06:01:28;;;;;;;;;;;14.90;83.50;;;;;;5091811;28;19949;-34
2023/08/28 06:03:56;;;;;;;;;;;15.00;83.40;;;;;;5092058;28;19959;-35
2023/08/28 06:06:24;;;;;;;;;;;15.10;83.40;;;;;;5091789;28;20030;-34
2023/08/28 06:08:49;;;;;;;;;;;15.10;83.20;;;;;;5091680;28;19954;-34
2023/08/28 06:11:15;;;;;;;;;;;15.20;83.20;;;;;;5091625;28;19951;-34
2023/08/28 06:13:40;;;;;;;;;;;15.20;83.10;;;;;;5092501;28;19920;-34
2023/08/28 06:16:06;;;;;;;;;;;15.20;83.00;;;;;;5095684;28;20007;-33
2023/08/28 06:18:32;;;;;;;;;;;15.30;83.00;;;;;;5094226;28;19919;-34
2023/08/28 06:20:58;;;;;;;;;;;15.40;83.00;;;;;;5095441;28;19938;-34
2023/08/28 06:23:23;;;;;;;;;;;15.40;82.90;;;;;;5095770;28;19912;-33
2023/08/28 06:25:49;;;;;;;;;;;15.50;82.80;;;;;;5094352;28;19938;-33
2023/08/28 06:28:14;;;;;;;;;;;15.50;82.70;;;;;;5095559;28;19919;-33
2023/08/28 06:30:40;;;;;;;;;;;15.60;82.70;;;;;;5094216;28;19912;-34
2023/08/28 06:33:06;;;;;;;;;;;15.60;82.60;;;;;;5095407;28;19916;-33
2023/08/28 06:35:32;;;;;;;;;;;15.60;82.60;;;;;;5095325;28;19912;-34
2023/08/28 06:37:57;;;;;;;;;;;15.70;82.60;;;;;;5095224;28;19912;-32
2023/08/28 06:40:23;;;;;;;;;;;15.70;82.60;;;;;;5095343;28;20298;-34
2023/08/28 06:42:48;;;;;;;;;;;15.70;82.50;;;;;;5095326;28;19912;-32
2023/08/28 06:45:14;;;;;;;;;;;15.80;82.50;;;;;;5095271;28;20312;-34
2023/08/28 06:47:39;;;;;;;;;;;15.90;82.50;;;;;;5095236;28;19915;-33
2023/08/28 06:50:05;;;;;;;;;;;15.90;82.40;;;;;;5094903;28;19934;-33
2023/08/28 06:52:31;;;;;;;;;;;15.90;82.30;;;;;;5095096;28;19912;-33
2023/08/28 06:54:56;;;;;;;;;;;16.00;82.30;;;;;;5095085;28;19923;-32
2023/08/28 06:57:22;;;;;;;;;;;16.00;82.30;;;;;;5095144;28;19952;-34
2023/08/28 06:59:48;;;;;;;;;;;16.10;82.30;;;;;;5094884;28;20413;-33
2023/08/28 07:02:14;;;;;;;;;;;16.20;82.20;;;;;;5095257;28;20551;-33
2023/08/28 07:04:40;;;;;;;;;;;16.20;82.20;;;;;;5094953;28;19995;-34
2023/08/28 07:07:05;;;;;;;;;;;16.20;82.10;;;;;;5094713;28;19924;-34
2023/08/28 07:09:31;;;;;;;;;;;16.20;82.10;;;;;;5094741;28;19951;-34
2023/08/28 07:11:56;;;;;;;;;;;16.30;82.20;;;;;;5094713;28;19918;-33
2023/08/28 07:14:22;;;;;;;;;;;16.40;82.10;;;;;;5094682;28;19970;-36
2023/08/28 07:16:47;;;;;;;;;;;16.50;81.80;;;;;;5094712;28;19960;-34
2023/08/28 07:19:13;;;;;;;;;;;16.70;81.70;;;;;;5094561;28;19909;-33
2023/08/28 07:21:38;;;;;;;;;;;16.80;81.60;;;;;;5094799;28;19908;-33
2023/08/28 07:24:04;;;;;;;;;;;16.90;81.40;;;;;;5094613;28;19908;-33
2023/08/28 07:26:29;;;;;;;;;;;17.00;81.30;;;;;;5093817;28;20398;-32
2023/08/28 07:28:55;;;;;;;;;;;17.10;81.20;;;;;;5094303;28;19930;-33
2023/08/28 07:31:20;;;;;;;;;;;17.20;81.00;;;;;;5094339;28;19912;-34
2023/08/28 07:33:46;;;;;;;;;;;17.20;81.00;;;;;;5094392;28;20223;-34
2023/08/28 07:36:12;;;;;;;;;;;17.30;80.80;;;;;;5092916;28;19953;-34
2023/08/28 07:38:37;;;;;;;;;;;17.40;80.80;;;;;;5094064;28;20390;-34
2023/08/28 07:41:03;;;;;;;;;;;17.40;80.70;;;;;;5094095;28;19922;-34
2023/08/28 07:43:28;;;;;;;;;;;17.40;80.70;;;;;;5094155;28;19915;-32
2023/08/28 07:45:54;;;;;;;;;;;17.40;80.80;;;;;;5094189;28;20364;-36
2023/08/28 07:48:19;;;;;;;;;;;17.40;80.80;;;;;;5092606;28;19915;-36
2023/08/28 07:50:45;;;;;;;;;;;17.30;80.80;;;;;;5093754;28;20265;-35
2023/08/28 07:53:10;;;;;;;;;;;17.30;80.90;;;;;;5093788;28;19923;-34
2023/08/28 07:55:37;;;;;;;;;;;17.20;81.00;;;;;;5093972;28;19912;-34
2023/08/28 07:58:04;;;;;;;;;;;17.20;81.20;;;;;;5093852;28;19909;-35
2023/08/28 08:00:34;;;;;;;;;;;17.10;81.20;;;;;;5093748;28;20319;-33
2023/08/28 08:03:00;;;;;;;;;;;17.20;81.40;;;;;;5093689;28;19958;-35
2023/08/28 08:05:26;;;;;;;;;;;17.20;81.40;;;;;;5093444;28;20276;-34
2023/08/28 08:07:52;;;;;;;;;;;17.10;81.30;;;;;;5093598;28;19930;-33
2023/08/28 08:10:17;;;;;;;;;;;17.20;81.40;;;;;;5093570;28;19943;-34
2023/08/28 08:12:44;;;;;;;;;;;17.20;81.40;;;;;;5093430;28;19912;-34
2023/08/28 08:15:10;;;;;;;;;;;17.30;81.40;;;;;;5092243;28;19908;-35
2023/08/28 08:17:39;;;;;;;;;;;17.40;81.30;;;;;;5093605;28;20326;-35
2023/08/28 08:20:10;;;;;;;;;;;17.40;81.30;;;;;;5093327;28;19908;-37
2023/08/28 08:22:37;;;;;;;;;;;17.40;81.20;;;;;;5093820;28;19908;-36
2023/08/28 08:25:02;;;;;;;;;;;17.50;81.40;;;;;;5093504;28;19909;-35
2023/08/28 08:27:28;;;;;;;;;;;17.50;81.40;;;;;;5093414;28;19914;-35
2023/08/28 08:29:53;;;;;;;;;;;17.50;81.30;;;;;;5093171;28;19961;-35
2023/08/28 08:32:19;;;;;;;;;;;17.60;81.30;;;;;;5093441;28;19912;-36
2023/08/28 08:34:45;;;;;;;;;;;17.70;81.20;;;;;;5093801;28;19915;-36
2023/08/28 08:37:10;;;;;;;;;;;17.70;81.30;;;;;;5092725;28;19909;-40
2023/08/28 08:39:36;;;;;;;;;;;17.80;81.30;;;;;;5092984;28;19908;-40
2023/08/28 08:42:01;;;;;;;;;;;17.90;81.00;;;;;;5093101;28;19912;-38
2023/08/28 08:44:27;;;;;;;;;;;18.00;80.90;;;;;;5093292;28;19909;-37
2023/08/28 08:46:53;;;;;;;;;;;18.10;80.80;;;;;;5093053;28;20347;-38
2023/08/28 08:49:21;;;;;;;;;;;18.10;80.60;;;;;;5092785;28;19915;-37
2023/08/28 08:51:47;;;;;;;;;;;18.30;80.40;;;;;;5092855;28;19912;-36
2023/08/28 08:54:20;;;;;;;;;;;18.40;80.30;;;;;;5092773;28;19915;-34
2023/08/28 08:56:52;;;;;;;;;;;18.50;80.10;;;;;;5093130;28;19908;-35
2023/08/28 08:59:18;;;;;;;;;;;18.70;80.00;;;;;;5092652;28;19908;-36
2023/08/28 09:01:43;;;;;;;;;;;18.90;79.70;;;;;;5092652;28;19914;-35
2023/08/28 09:04:09;;;;;;;;;;;19.10;79.40;;;;;;5092761;28;20359;-36
2023/08/28 09:06:36;;;;;;;;;;;19.20;79.20;;;;;;5092695;28;19924;-35
2023/08/28 09:09:05;;;;;;;;;;;19.20;78.70;;;;;;5092726;28;20368;-35
2023/08/28 09:11:31;;;;;;;;;;;19.20;78.30;;;;;;5092502;28;20011;-35
2023/08/28 09:13:57;;;;;;;;;;;19.10;78.40;;;;;;5092520;28;19923;-34
2023/08/28 09:16:22;;;;;;;;;;;19.10;78.20;;;;;;5092591;28;20344;-34
2023/08/28 09:18:48;;;;;;;;;;;19.10;78.30;;;;;;5092432;28;19908;-35
2023/08/28 09:21:14;;;;;;;;;;;19.10;78.30;;;;;;5092260;28;20042;-35
2023/08/28 09:23:43;;;;;;;;;;;19.00;78.30;;;;;;5092577;28;19951;-36
2023/08/28 09:26:11;;;;;;;;;;;19.10;78.30;;;;;;5092437;28;19908;-33
2023/08/28 09:28:37;;;;;;;;;;;19.10;78.30;;;;;;5091049;28;19915;-35
2023/08/28 09:31:02;;;;;;;;;;;19.30;78.10;;;;;;5092217;28;19912;-34
2023/08/28 09:33:41;;;;;;;;;;;19.40;77.90;;;;;;5092213;28;19950;-34
2023/08/28 09:36:13;;;;;;;;;;;19.50;77.60;;;;;;5092263;28;20318;-35
2023/08/28 09:38:40;;;;;;;;;;;19.70;77.30;;;;;;5092100;28;19908;-34
2023/08/28 09:41:06;;;;;;;;;;;19.80;76.50;;;;;;5092073;28;19962;-35
2023/08/28 09:43:34;;;;;;;;;;;19.90;76.50;;;;;;5091660;28;20313;-35
2023/08/28 09:45:59;;;;;;;;;;;20.00;76.30;;;;;;5091995;28;19998;-35
2023/08/28 09:48:28;;;;;;;;;;;20.10;76.20;;;;;;5092307;28;19954;-35
2023/08/28 09:50:54;;;;;;;;;;;20.10;75.30;;;;;;5096375;28;19912;-35
2023/08/28 09:53:19;;;;;;;;;;;20.10;75.40;;;;;;5096156;28;20229;-36
2023/08/28 09:55:46;;;;;;;;;;;20.00;75.50;;;;;;5094883;28;19908;-36
2023/08/28 09:58:11;;;;;;;;;;;20.00;75.60;;;;;;5096269;28;20413;-36
2023/08/28 10:00:39;;;;;;;;;;;19.90;75.70;;;;;;5096043;28;19908;-38
2023/08/28 10:03:08;;;;;;;;;;;19.90;75.70;;;;;;5095989;28;19908;-35
2023/08/28 10:05:35;;;;;;;;;;;19.90;75.50;;;;;;5095990;28;20276;-35
2023/08/28 10:08:04;;;;;;;;;;;19.80;75.20;;;;;;5096017;28;19999;-36
2023/08/28 10:10:30;;;;;;;;;;;19.80;75.20;;;;;;5095904;28;20397;-34
2023/08/28 10:12:55;;;;;;;;;;;19.80;74.70;;;;;;5096016;28;19951;-35
2023/08/28 10:15:21;;;;;;;;;;;19.80;74.70;;;;;;5095898;28;20004;-35
2023/08/28 10:17:47;;;;;;;;;;;19.80;74.80;;;;;;5095868;28;20023;-33
2023/08/28 10:20:13;;;;;;;;;;;19.90;75.00;;;;;;5095631;28;19909;-35
2023/08/28 10:22:40;;;;;;;;;;;19.90;74.70;;;;;;5095695;28;19957;-35
2023/08/28 10:25:06;;;;;;;;;;;19.90;74.80;;;;;;5095685;28;19908;-36
2023/08/28 10:27:32;;;;;;;;;;;19.90;74.40;;;;;;5095621;28;19908;-35
2023/08/28 10:29:57;;;;;;;;;;;19.80;74.60;;;;;;5095561;28;19934;-35
2023/08/28 10:32:23;;;;;;;;;;;19.80;74.40;;;;;;5095498;28;19912;-36
2023/08/28 10:34:51;;;;;;;;;;;19.90;74.40;;;;;;5095492;28;19943;-35
2023/08/28 10:37:17;;;;;;;;;;;20.00;74.40;;;;;;5095513;28;19943;-34
2023/08/28 10:39:43;;;;;;;;;;;20.20;73.90;;;;;;5095261;28;19981;-35
2023/08/28 10:42:09;;;;;;;;;;;20.30;73.30;;;;;;5095429;28;19908;-34
2023/08/28 10:44:35;;;;;;;;;;;20.40;73.10;;;;;;5095228;28;19955;-34
2023/08/28 10:47:01;;;;;;;;;;;20.50;73.00;;;;;;5095128;28;19908;-36
2023/08/28 10:49:27;;;;;;;;;;;20.50;72.90;;;;;;5095067;28;19915;-36
2023/08/28 10:52:04;;;;;;;;;;;20.70;72.70;;;;;;5095011;28;19920;-37
2023/08/28 10:54:37;;;;;;;;;;;20.70;72.50;;;;;;5095161;28;19915;-35
2023/08/28 10:57:06;;;;;;;;;;;20.90;73.10;;;;;;5093944;28;19999;-36
2023/08/28 10:59:40;;;;;;;;;;;21.00;72.30;;;;;;5094739;28;19923;-35
2023/08/28 11:02:06;;;;;;;;;;;21.10;72.10;;;;;;5094151;28;19908;-34
2023/08/28 11:04:33;;;;;;;;;;;21.30;71.80;;;;;;5094947;28;20394;-35
2023/08/28 11:06:58;;;;;;;;;;;21.40;71.10;;;;;;5094809;28;19999;-36
2023/08/28 11:09:30;;;;;;;;;;;21.40;71.20;;;;;;5094744;28;19955;-35
2023/08/28 11:12:01;;;;;;;;;;;21.50;71.20;;;;;;5095082;28;19962;-36
2023/08/28 11:14:26;;;;;;;;;;;21.50;71.00;;;;;;5095102;28;20497;-36
2023/08/28 11:17:04;;;;;;;;;;;21.50;70.50;;;;;;5094729;28;19919;-34
2023/08/28 11:19:30;;;;;;;;;;;21.50;70.60;;;;;;5094388;28;19914;-35
2023/08/28 11:21:58;;;;;;;;;;;21.60;70.70;;;;;;5094690;28;20338;-35
2023/08/28 11:24:24;;;;;;;;;;;21.60;70.80;;;;;;5094534;28;20378;-36
2023/08/28 11:26:49;;;;;;;;;;;21.70;70.30;;;;;;5094395;28;19958;-34
2023/08/28 11:29:25;;;;;;;;;;;21.60;69.80;;;;;;5094462;28;20275;-35
2023/08/28 11:31:50;;;;;;;;;;;21.60;69.80;;;;;;5094513;28;19938;-33
2023/08/28 11:34:16;;;;;;;;;;;21.50;70.00;;;;;;5094421;28;19908;-36
2023/08/28 11:36:41;;;;;;;;;;;21.40;69.90;;;;;;5094253;28;20395;-36
2023/08/28 11:39:19;;;;;;;;;;;21.30;69.80;;;;;;5094282;28;20003;-35
2023/08/28 11:41:44;;;;;;;;;;;21.20;69.30;;;;;;5094354;28;19995;-34
2023/08/28 11:44:12;;;;;;;;;;;21.10;69.50;;;;;;5093936;28;19951;-35
2023/08/28 11:46:38;;;;;;;;;;;21.10;69.70;;;;;;5094305;28;20264;-35
2023/08/28 11:49:06;;;;;;;;;;;21.20;69.90;;;;;;5093952;28;19915;-37
2023/08/28 11:51:31;;;;;;;;;;;21.30;69.90;;;;;;5093848;28;19931;-35
2023/08/28 11:53:58;;;;;;;;;;;21.30;69.80;;;;;;5094112;28;19908;-35
2023/08/28 11:56:24;;;;;;;;;;;21.30;69.30;;;;;;5093763;28;19909;-35
2023/08/28 11:58:49;;;;;;;;;;;21.30;68.60;;;;;;5093836;28;19957;-41
2023/08/28 12:01:15;;;;;;;;;;;21.30;69.00;;;;;;5094058;28;19915;-35
2023/08/28 12:03:41;;;;;;;;;;;21.30;68.90;;;;;;5093847;28;19914;-35
2023/08/28 12:06:08;;;;;;;;;;;21.40;69.10;;;;;;5092400;28;20287;-36
2023/08/28 12:08:35;;;;;;;;;;;21.40;67.70;;;;;;5093717;28;19908;-35
2023/08/28 12:11:02;;;;;;;;;;;21.50;67.50;;;;;;5092278;28;19912;-35
2023/08/28 12:13:27;;;;;;;;;;;21.50;66.90;;;;;;5093323;28;20424;-36
2023/08/28 12:16:04;;;;;;;;;;;21.50;66.10;;;;;;5093553;28;19959;-34
2023/08/28 12:18:41;;;;;;;;;;;21.50;66.30;;;;;;5093538;28;19908;-34
2023/08/28 12:21:07;;;;;;;;;;;21.50;66.70;;;;;;5093230;28;19948;-35
2023/08/28 12:23:32;;;;;;;;;;;21.50;66.70;;;;;;5093374;28;19915;-35
2023/08/28 12:25:58;;;;;;;;;;;21.60;66.90;;;;;;5093385;28;20018;-35
2023/08/28 12:28:24;;;;;;;;;;;21.70;66.40;;;;;;5093186;28;19958;-36
2023/08/28 12:30:51;;;;;;;;;;;21.70;66.50;;;;;;5093079;28;20253;-45
2023/08/28 12:33:17;;;;;;;;;;;21.80;65.50;;;;;;5093131;28;19912;-35
2023/08/28 12:35:42;;;;;;;;;;;21.70;66.10;;;;;;5093102;28;19908;-36
2023/08/28 12:38:08;;;;;;;;;;;21.80;66.20;;;;;;5093371;28;20271;-36
2023/08/28 12:40:35;;;;;;;;;;;21.80;66.20;;;;;;5092926;28;19923;-36
2023/08/28 12:43:03;;;;;;;;;;;21.90;66.00;;;;;;5093046;28;19961;-36
2023/08/28 12:45:33;;;;;;;;;;;22.00;66.00;;;;;;5092800;28;19908;-35
2023/08/28 12:47:58;;;;;;;;;;;22.10;65.90;;;;;;5092877;28;19915;-40
2023/08/28 12:50:24;;;;;;;;;;;22.30;65.80;;;;;;5091275;28;20283;-36
2023/08/28 12:52:50;;;;;;;;;;;22.50;65.50;;;;;;5092750;28;19919;-34
2023/08/28 12:55:15;;;;;;;;;;;22.50;64.00;;;;;;5092754;28;19915;-34
2023/08/28 12:57:40;;;;;;;;;;;22.50;64.00;;;;;;5092751;28;19985;-36
2023/08/28 13:00:07;;;;;;;;;;;22.60;64.00;;;;;;5092694;28;20007;-33
2023/08/28 13:02:33;;;;;;;;;;;22.80;63.10;;;;;;5092432;28;19909;-34
2023/08/28 13:05:00;;;;;;;;;;;23.00;63.00;;;;;;5092345;28;19908;-32
2023/08/28 13:07:25;;;;;;;;;;;23.10;62.80;;;;;;5092333;28;20023;-33
2023/08/28 13:09:51;;;;;;;;;;;23.10;62.80;;;;;;5092297;28;19999;-35
2023/08/28 13:12:17;;;;;;;;;;;23.20;62.30;;;;;;5092436;28;19912;-33
2023/08/28 13:14:42;;;;;;;;;;;23.20;61.40;;;;;;5092519;28;19977;-35
2023/08/28 13:17:08;;;;;;;;;;;23.10;59.90;;;;;;5092522;28;19912;-35
2023/08/28 13:19:33;;;;;;;;;;;23.10;61.00;;;;;;5091970;28;19908;-36
2023/08/28 13:21:59;;;;;;;;;;;23.20;61.70;;;;;;5092325;28;19947;-38
2023/08/28 13:24:25;;;;;;;;;;;23.20;61.00;;;;;;5091708;28;19930;-34
2023/08/28 13:26:50;;;;;;;;;;;23.30;61.70;;;;;;5092329;28;19959;-34
2023/08/28 13:29:16;;;;;;;;;;;23.50;61.80;;;;;;5092113;28;19909;-36
2023/08/28 13:31:41;;;;;;;;;;;23.60;60.90;;;;;;5092069;28;19967;-37
2023/08/28 13:34:07;;;;;;;;;;;23.70;60.50;;;;;;5090965;28;19909;-35
2023/08/28 13:36:32;;;;;;;;;;;23.70;60.50;;;;;;5092396;28;19908;-36
2023/08/28 13:38:57;;;;;;;;;;;23.70;59.60;;;;;;5090671;28;19909;-34
2023/08/28 13:41:23;;;;;;;;;;;23.70;59.70;;;;;;5092037;28;19957;-35
2023/08/28 13:43:48;;;;;;;;;;;23.80;59.70;;;;;;5091852;28;19912;-35
2023/08/28 13:46:14;;;;;;;;;;;23.70;59.60;;;;;;5092248;28;20072;-36
2023/08/28 13:48:39;;;;;;;;;;;23.60;59.60;;;;;;5091770;28;19909;-34
2023/08/28 13:51:07;;;;;;;;;;;23.50;60.00;;;;;;5091745;28;19908;-37
2023/08/28 13:53:32;;;;;;;;;;;23.30;59.60;;;;;;5091813;28;20002;-35
2023/08/28 13:55:58;;;;;;;;;;;23.10;60.40;;;;;;5091964;28;20008;-34
2023/08/28 13:58:23;;;;;;;;;;;23.00;60.40;;;;;;5091853;28;20413;-35
2023/08/28 14:00:56;;;;;;;;;;;22.90;60.90;;;;;;5090736;28;19957;-36
2023/08/28 14:03:22;;;;;;;;;;;22.80;61.10;;;;;;5092144;28;19908;-36
2023/08/28 14:05:48;;;;;;;;;;;22.80;61.60;;;;;;5091838;28;20015;-37
2023/08/28 14:08:13;;;;;;;;;;;22.70;61.60;;;;;;5091781;28;20431;-35
2023/08/28 14:10:39;;;;;;;;;;;22.70;61.50;;;;;;5091834;28;19908;-36
2023/08/28 14:13:04;;;;;;;;;;;22.70;61.90;;;;;;5091793;28;19916;-34